Time;durP1;ratioP1;P1;durP2;ratioP2;P2;SDS_P1;SDS_P2;PMS_P1;PMS_P2;Temp;Humidity;BMP_temperature;BMP_pressure;BME280_temperature;BME280_humidity;BME280_pressure;Samples;Min_cycle;Max_cycle;Signal;HPM_P1;HPM_P2
2024/02/18 00:01:41;;;;;;;32.25;24.70;;;9.90;99.90;;;;;;5107097;27;20036;-64
2024/02/18 00:04:07;;;;;;;35.63;26.27;;;9.80;99.90;;;;;;5090066;28;20603;-63
2024/02/18 00:06:33;;;;;;;34.85;25.13;;;9.80;99.90;;;;;;5090858;28;20067;-64
2024/02/18 00:08:59;;;;;;;32.17;26.00;;;9.80;99.90;;;;;;5091113;28;20067;-64
2024/02/18 00:11:25;;;;;;;34.45;25.05;;;9.80;99.90;;;;;;5072897;28;20048;-64
2024/02/18 00:13:51;;;;;;;32.85;25.23;;;9.80;99.90;;;;;;5071845;28;20055;-64
2024/02/18 00:16:16;;;;;;;30.83;25.65;;;9.80;99.90;;;;;;5094452;28;20051;-64
2024/02/18 00:18:42;;;;;;;30.23;25.25;;;9.80;99.90;;;;;;5091948;28;20123;-64
2024/02/18 00:21:08;;;;;;;36.85;26.08;;;9.80;99.90;;;;;;5087802;28;20482;-64
2024/02/18 00:23:33;;;;;;;34.90;25.23;;;9.70;99.90;;;;;;5071916;28;20401;-64
2024/02/18 00:25:59;;;;;;;31.15;24.15;;;9.80;99.90;;;;;;5077010;28;20043;-64
2024/02/18 00:28:25;;;;;;;32.88;25.00;;;9.80;99.90;;;;;;5092348;28;20043;-64
2024/02/18 00:30:51;;;;;;;32.97;24.17;;;9.70;99.90;;;;;;5094592;28;20028;-64
2024/02/18 00:33:18;;;;;;;31.13;23.35;;;9.70;99.90;;;;;;5074198;28;20052;-64
2024/02/18 00:35:43;;;;;;;30.98;24.77;;;9.70;99.90;;;;;;5081986;28;20040;-64
2024/02/18 00:38:12;;;;;;;27.98;24.10;;;9.70;99.90;;;;;;5069065;28;20040;-64
2024/02/18 00:40:38;;;;;;;27.33;23.92;;;9.80;99.90;;;;;;5074525;28;20058;-64
2024/02/18 00:43:03;;;;;;;29.92;23.65;;;9.60;99.90;;;;;;5092271;28;20650;-64
2024/02/18 00:45:29;;;;;;;30.35;23.23;;;9.60;99.90;;;;;;5108155;27;20070;-64
2024/02/18 00:47:54;;;;;;;29.50;21.60;;;9.60;99.90;;;;;;5094497;28;20069;-64
2024/02/18 00:50:20;;;;;;;25.42;22.15;;;9.70;99.90;;;;;;5072789;28;20051;-64
2024/02/18 00:52:46;;;;;;;24.77;20.35;;;9.70;99.90;;;;;;5067748;28;20043;-64
2024/02/18 00:55:11;;;;;;;27.92;21.40;;;9.70;99.90;;;;;;5078839;28;20044;-64
2024/02/18 00:57:37;;;;;;;29.10;21.75;;;9.70;99.90;;;;;;5089073;28;20036;-64
2024/02/18 01:00:04;;;;;;;27.88;21.08;;;9.70;99.90;;;;;;5091684;28;20378;-64
2024/02/18 01:02:30;;;;;;;25.00;19.95;;;9.70;99.90;;;;;;5054849;28;20550;-64
2024/02/18 01:04:56;;;;;;;28.35;21.48;;;9.70;99.90;;;;;;5091610;28;20042;-64
2024/02/18 01:07:22;;;;;;;25.75;19.40;;;9.70;99.90;;;;;;5106677;28;20040;-64
2024/02/18 01:09:49;;;;;;;25.42;19.42;;;9.60;99.90;;;;;;5072417;28;20048;-64
2024/02/18 01:12:15;;;;;;;26.85;19.95;;;9.70;99.90;;;;;;5090416;28;20043;-64
2024/02/18 01:14:42;;;;;;;22.98;19.38;;;9.70;99.90;;;;;;5077148;28;20075;-64
2024/02/18 01:17:08;;;;;;;28.33;18.98;;;9.60;99.90;;;;;;5073733;28;20481;-64
2024/02/18 01:19:34;;;;;;;23.70;19.10;;;9.70;99.90;;;;;;5087355;28;20122;-64
2024/02/18 01:21:59;;;;;;;24.42;19.00;;;9.70;99.90;;;;;;5089923;28;20449;-64
2024/02/18 01:24:25;;;;;;;24.83;18.00;;;9.90;99.90;;;;;;5090630;28;20119;-64
2024/02/18 01:26:50;;;;;;;21.90;17.10;;;9.70;99.90;;;;;;5074970;28;20042;-64
2024/02/18 01:29:16;;;;;;;22.13;17.83;;;9.70;99.90;;;;;;5090948;28;20068;-64
2024/02/18 01:31:42;;;;;;;25.45;15.90;;;9.70;99.90;;;;;;5089738;28;20035;-64
2024/02/18 01:34:08;;;;;;;21.17;15.65;;;9.80;99.90;;;;;;5073365;28;20062;-64
2024/02/18 01:36:34;;;;;;;24.35;15.77;;;9.80;99.90;;;;;;5072569;28;20039;-64
2024/02/18 01:38:59;;;;;;;25.92;15.32;;;9.80;99.90;;;;;;5093628;28;20398;-64
2024/02/18 01:41:25;;;;;;;18.90;15.13;;;9.70;99.90;;;;;;5097052;28;20035;-64
2024/02/18 01:43:50;;;;;;;18.40;14.32;;;9.80;99.90;;;;;;5075819;28;20040;-64
2024/02/18 01:46:16;;;;;;;22.02;15.50;;;9.80;99.90;;;;;;5076685;28;20047;-64
2024/02/18 01:48:42;;;;;;;18.05;15.63;;;9.80;99.90;;;;;;5093024;28;20386;-64
2024/02/18 01:51:07;;;;;;;20.02;16.05;;;9.80;99.90;;;;;;5071827;28;20473;-64
2024/02/18 01:53:34;;;;;;;17.58;14.77;;;9.70;99.90;;;;;;5073281;28;20118;-64
2024/02/18 01:56:01;;;;;;;18.83;14.13;;;9.80;99.90;;;;;;5075618;28;20044;-64
2024/02/18 01:58:26;;;;;;;18.30;13.98;;;9.80;99.90;;;;;;5074266;28;20478;-64
2024/02/18 02:00:53;;;;;;;16.02;13.63;;;9.80;99.90;;;;;;5091319;28;20070;-64
2024/02/18 02:03:19;;;;;;;17.45;12.73;;;9.80;99.90;;;;;;5094096;28;20039;-64
2024/02/18 02:05:46;;;;;;;16.00;13.10;;;9.80;99.90;;;;;;5079084;28;20040;-64
2024/02/18 02:08:12;;;;;;;19.15;13.32;;;9.80;99.90;;;;;;5088058;28;20512;-64
2024/02/18 02:10:37;;;;;;;19.73;13.95;;;9.80;99.90;;;;;;5073576;28;20028;-64
2024/02/18 02:13:05;;;;;;;18.85;13.00;;;9.80;99.90;;;;;;5082509;28;20039;-64
2024/02/18 02:15:31;;;;;;;18.65;12.55;;;9.80;99.90;;;;;;5106749;27;20162;-64
2024/02/18 02:17:56;;;;;;;14.80;11.98;;;9.80;99.90;;;;;;5077838;28;20082;-64
2024/02/18 02:20:22;;;;;;;17.98;12.02;;;9.90;99.90;;;;;;5095517;28;20466;-64
2024/02/18 02:22:48;;;;;;;16.33;11.05;;;9.90;99.90;;;;;;5079109;28;20036;-64
2024/02/18 02:25:14;;;;;;;16.98;11.00;;;9.90;99.90;;;;;;5077722;28;20159;-64
2024/02/18 02:27:48;;;;;;;17.92;11.30;;;9.90;99.90;;;;;;5080687;28;20068;-64
2024/02/18 02:30:14;;;;;;;18.35;10.65;;;9.90;99.90;;;;;;5095663;28;20035;-64
2024/02/18 02:32:39;;;;;;;15.80;10.88;;;9.90;99.90;;;;;;5096023;28;20045;-64
2024/02/18 02:35:06;;;;;;;14.45;10.85;;;9.90;99.90;;;;;;5060872;28;20059;-64
2024/02/18 02:37:32;;;;;;;18.02;9.77;;;9.90;99.90;;;;;;5080236;28;20047;-64
2024/02/18 02:39:57;;;;;;;13.60;9.75;;;9.90;99.90;;;;;;5090610;28;21959;-64
2024/02/18 02:42:23;;;;;;;15.27;10.50;;;9.90;99.90;;;;;;5097915;28;20048;-64
2024/02/18 02:44:49;;;;;;;14.55;10.13;;;9.90;99.90;;;;;;5080142;28;20394;-64
2024/02/18 02:47:14;;;;;;;14.50;9.73;;;9.90;99.90;;;;;;5083191;28;20116;-64
2024/02/18 02:49:40;;;;;;;17.75;10.45;;;10.00;99.90;;;;;;5073828;28;20040;-64
2024/02/18 02:52:06;;;;;;;12.52;8.98;;;9.90;99.90;;;;;;5094670;28;20484;-64
2024/02/18 02:54:31;;;;;;;14.52;8.88;;;10.00;99.90;;;;;;5093111;28;20508;-64
2024/02/18 02:56:57;;;;;;;13.02;9.35;;;10.00;99.90;;;;;;5072232;28;20043;-64
2024/02/18 02:59:23;;;;;;;14.88;9.20;;;9.90;99.90;;;;;;5079906;28;20058;-64
2024/02/18 03:01:49;;;;;;;12.68;8.70;;;10.00;99.90;;;;;;5078836;28;20043;-64
2024/02/18 03:04:15;;;;;;;11.60;8.43;;;10.00;99.90;;;;;;5079632;28;20078;-64
2024/02/18 03:06:40;;;;;;;17.58;8.85;;;10.00;99.90;;;;;;5077808;28;20036;-64
2024/02/18 03:09:07;;;;;;;11.25;9.05;;;10.00;99.90;;;;;;5068824;28;20059;-64
2024/02/18 03:11:32;;;;;;;14.07;8.13;;;10.00;99.90;;;;;;5105710;27;20371;-64
2024/02/18 03:13:58;;;;;;;15.25;8.80;;;10.00;99.90;;;;;;5068653;28;20069;-64
2024/02/18 03:16:24;;;;;;;12.80;7.70;;;10.00;99.90;;;;;;5094711;28;20804;-64
2024/02/18 03:18:50;;;;;;;13.00;7.70;;;10.00;99.90;;;;;;5094248;28;20035;-64
2024/02/18 03:21:15;;;;;;;12.90;8.43;;;10.00;99.90;;;;;;5094786;28;20035;-64
2024/02/18 03:23:42;;;;;;;14.63;7.78;;;10.10;99.90;;;;;;5078647;28;20517;-64
2024/02/18 03:26:08;;;;;;;13.77;7.60;;;10.00;99.90;;;;;;5077204;28;20039;-64
2024/02/18 03:28:34;;;;;;;14.73;7.30;;;10.00;99.90;;;;;;5093019;28;20036;-64
2024/02/18 03:31:00;;;;;;;14.63;8.32;;;10.00;99.90;;;;;;5092438;28;20610;-64
2024/02/18 03:33:25;;;;;;;9.25;6.25;;;10.00;99.90;;;;;;5089643;28;20044;-64
2024/02/18 03:35:51;;;;;;;10.57;5.70;;;10.00;99.90;;;;;;5076257;28;20074;-64
2024/02/18 03:38:17;;;;;;;12.35;6.40;;;10.00;99.90;;;;;;5091905;28;20498;-64
2024/02/18 03:40:42;;;;;;;11.68;5.90;;;10.10;99.90;;;;;;5074796;28;20047;-64
2024/02/18 03:43:08;;;;;;;10.27;5.47;;;10.10;99.90;;;;;;5072154;28;20032;-64
2024/02/18 03:45:34;;;;;;;10.45;5.90;;;10.10;99.90;;;;;;5078194;28;20200;-64
2024/02/18 03:48:00;;;;;;;10.35;5.28;;;10.10;99.90;;;;;;5077512;28;20035;-64
2024/02/18 03:50:25;;;;;;;9.70;5.90;;;10.10;99.90;;;;;;5074391;28;20093;-64
2024/02/18 03:52:51;;;;;;;10.25;5.22;;;10.10;99.90;;;;;;5071689;28;20059;-64
2024/02/18 03:55:17;;;;;;;15.02;5.28;;;10.10;99.90;;;;;;5073851;28;20044;-64
2024/02/18 03:57:42;;;;;;;8.43;4.72;;;10.10;99.90;;;;;;5081198;28;20101;-64
2024/02/18 04:00:10;;;;;;;9.50;4.88;;;10.10;99.90;;;;;;5062648;28;20039;-64
2024/02/18 04:02:38;;;;;;;8.20;4.10;;;10.10;99.90;;;;;;5105383;27;20040;-64
2024/02/18 04:05:05;;;;;;;9.57;4.18;;;10.10;99.90;;;;;;5094812;28;20408;-64
2024/02/18 04:07:30;;;;;;;8.15;4.35;;;10.20;99.90;;;;;;5096368;28;20039;-64
2024/02/18 04:09:56;;;;;;;9.18;4.50;;;10.10;99.90;;;;;;5097790;28;20040;-64
2024/02/18 04:12:22;;;;;;;12.85;4.50;;;10.10;99.90;;;;;;5076635;28;20036;-64
2024/02/18 04:14:49;;;;;;;9.25;4.05;;;10.10;99.90;;;;;;5105979;27;20056;-64
2024/02/18 04:17:14;;;;;;;10.88;5.03;;;10.10;99.90;;;;;;5078084;28;20036;-64
2024/02/18 04:19:40;;;;;;;7.38;3.95;;;10.10;99.90;;;;;;5074725;28;20092;-64
2024/02/18 04:22:06;;;;;;;11.40;4.20;;;10.20;99.90;;;;;;5076949;28;20036;-64
2024/02/18 04:24:32;;;;;;;5.35;3.25;;;10.10;99.90;;;;;;5094566;28;20048;-64
2024/02/18 04:26:59;;;;;;;7.10;3.47;;;10.10;99.90;;;;;;5089748;28;20078;-64
2024/02/18 04:29:25;;;;;;;7.72;4.13;;;10.10;99.90;;;;;;5077598;28;20044;-64
2024/02/18 04:31:51;;;;;;;13.15;4.13;;;10.10;99.90;;;;;;5077028;28;20089;-63
2024/02/18 04:34:16;;;;;;;7.50;3.28;;;10.10;99.90;;;;;;5076688;28;20569;-64
2024/02/18 04:36:46;;;;;;;8.95;3.20;;;10.10;99.90;;;;;;5092977;28;20126;-64
2024/02/18 04:39:12;;;;;;;8.98;3.72;;;10.10;99.90;;;;;;5094438;28;21658;-64
2024/02/18 04:41:38;;;;;;;7.43;2.88;;;10.10;99.90;;;;;;5089232;28;20040;-64
2024/02/18 04:44:03;;;;;;;10.07;2.90;;;10.00;99.90;;;;;;5075967;28;20127;-64
2024/02/18 04:46:29;;;;;;;8.52;2.90;;;10.10;99.90;;;;;;5072718;28;20035;-64
2024/02/18 04:48:56;;;;;;;5.38;3.17;;;10.00;99.90;;;;;;5094495;28;20774;-64
2024/02/18 04:51:22;;;;;;;9.10;2.63;;;10.00;99.90;;;;;;5074811;28;20044;-64
2024/02/18 04:53:48;;;;;;;6.28;2.70;;;10.10;99.90;;;;;;5078470;28;20079;-64
2024/02/18 04:56:14;;;;;;;7.25;2.30;;;10.10;99.90;;;;;;5103973;27;20457;-64
2024/02/18 04:58:39;;;;;;;9.27;2.83;;;10.10;99.90;;;;;;5093458;28;20105;-64
2024/02/18 05:01:09;;;;;;;9.07;2.80;;;10.00;99.90;;;;;;5072323;28;20040;-64
2024/02/18 05:03:34;;;;;;;7.60;2.05;;;10.10;99.90;;;;;;5093416;28;20032;-64
2024/02/18 05:06:00;;;;;;;8.48;2.75;;;10.10;99.90;;;;;;5075769;28;20452;-64
2024/02/18 05:08:26;;;;;;;6.93;2.40;;;10.00;99.90;;;;;;5074226;28;20040;-64
2024/02/18 05:10:51;;;;;;;5.30;2.08;;;10.00;99.90;;;;;;5072936;28;20043;-64
2024/02/18 05:13:17;;;;;;;11.88;3.95;;;10.00;99.90;;;;;;5075672;28;21056;-64
2024/02/18 05:15:46;;;;;;;6.72;2.78;;;10.00;99.90;;;;;;5072213;28;20123;-64
2024/02/18 05:18:12;;;;;;;5.18;1.88;;;10.00;99.90;;;;;;5075009;28;20044;-64
2024/02/18 05:20:37;;;;;;;10.30;2.70;;;10.00;99.90;;;;;;5075191;28;20039;-64
2024/02/18 05:23:03;;;;;;;5.75;2.25;;;10.00;99.90;;;;;;5076005;28;20043;-64
2024/02/18 05:25:29;;;;;;;6.72;2.08;;;10.40;99.90;;;;;;5093284;28;20046;-64
2024/02/18 05:27:54;;;;;;;6.95;2.40;;;10.00;99.90;;;;;;5075353;28;20036;-64
2024/02/18 05:30:20;;;;;;;7.38;2.08;;;10.00;99.90;;;;;;5092476;28;20390;-64
2024/02/18 05:32:45;;;;;;;7.65;3.30;;;9.90;99.90;;;;;;5073731;28;20097;-64
2024/02/18 05:35:11;;;;;;;5.35;2.38;;;10.00;99.90;;;;;;5077590;28;20036;-64
2024/02/18 05:37:37;;;;;;;8.00;2.45;;;9.90;99.90;;;;;;5073835;28;20189;-64
2024/02/18 05:40:04;;;;;;;8.13;2.47;;;9.90;99.90;;;;;;5075329;28;20044;-64
2024/02/18 05:42:30;;;;;;;7.47;2.85;;;9.90;99.90;;;;;;5090766;28;20486;-64
2024/02/18 05:44:55;;;;;;;6.13;2.50;;;9.90;99.90;;;;;;5073546;28;20055;-64
2024/02/18 05:47:21;;;;;;;5.95;2.75;;;9.90;99.90;;;;;;5072545;28;20051;-64
2024/02/18 05:49:46;;;;;;;3.53;2.17;;;9.80;99.90;;;;;;5061942;28;20040;-64
2024/02/18 05:52:12;;;;;;;7.32;2.17;;;9.80;99.90;;;;;;5093882;28;20356;-64
2024/02/18 05:54:38;;;;;;;5.03;1.92;;;9.80;99.90;;;;;;5111876;27;20483;-64
2024/02/18 05:57:05;;;;;;;6.35;2.33;;;9.90;99.90;;;;;;5110304;27;20051;-64
2024/02/18 05:59:31;;;;;;;5.95;2.53;;;9.90;99.90;;;;;;5097010;28;20044;-64
2024/02/18 06:01:57;;;;;;;5.10;2.05;;;10.20;99.90;;;;;;5093723;28;20138;-64
2024/02/18 06:04:22;;;;;;;6.45;2.20;;;9.90;99.90;;;;;;5060232;28;20047;-64
2024/02/18 06:06:48;;;;;;;7.30;2.20;;;9.80;99.90;;;;;;5095026;28;20036;-64
2024/02/18 06:09:13;;;;;;;7.43;2.70;;;9.80;99.90;;;;;;5093813;28;20038;-64
2024/02/18 06:11:39;;;;;;;4.65;2.20;;;9.80;99.90;;;;;;5090529;28;20035;-64
2024/02/18 06:14:05;;;;;;;5.80;2.20;;;9.80;99.90;;;;;;5091557;28;20027;-64
2024/02/18 06:16:30;;;;;;;10.52;2.95;;;9.80;99.90;;;;;;5097921;28;20088;-64
2024/02/18 06:18:57;;;;;;;5.50;1.98;;;9.80;99.90;;;;;;5090543;28;20143;-64
2024/02/18 06:21:23;;;;;;;7.40;2.40;;;9.80;99.90;;;;;;5095183;28;20130;-64
2024/02/18 06:23:49;;;;;;;6.38;2.28;;;9.80;99.90;;;;;;5096246;28;20513;-64
2024/02/18 06:26:15;;;;;;;9.68;2.70;;;9.80;99.90;;;;;;5079211;28;20070;-64
2024/02/18 06:28:41;;;;;;;4.50;2.05;;;9.80;99.90;;;;;;5097142;28;20541;-64
2024/02/18 06:31:07;;;;;;;7.28;2.35;;;9.80;99.90;;;;;;5078136;28;20048;-64
2024/02/18 06:33:33;;;;;;;8.25;2.67;;;9.70;99.90;;;;;;5075368;28;20098;-64
2024/02/18 06:35:58;;;;;;;10.50;3.63;;;9.80;99.90;;;;;;5076729;28;20055;-64
2024/02/18 06:38:24;;;;;;;10.32;2.90;;;9.70;99.90;;;;;;5108238;27;20036;-66
2024/02/18 06:40:50;;;;;;;4.93;2.30;;;9.80;99.90;;;;;;5071617;28;20555;-64
2024/02/18 06:43:16;;;;;;;7.90;3.00;;;9.80;99.90;;;;;;5092891;28;20556;-64
2024/02/18 06:45:41;;;;;;;7.60;2.60;;;9.80;99.90;;;;;;5095529;28;20059;-65
2024/02/18 06:48:08;;;;;;;10.50;3.40;;;9.80;99.90;;;;;;5090840;28;20051;-65
2024/02/18 06:50:39;;;;;;;11.07;3.70;;;9.80;99.90;;;;;;5095597;28;20047;-65
2024/02/18 06:53:06;;;;;;;4.60;2.83;;;9.80;99.90;;;;;;5074332;28;20507;-65
2024/02/18 06:55:31;;;;;;;6.03;2.78;;;9.80;99.90;;;;;;5088066;28;20435;-64
2024/02/18 06:57:57;;;;;;;11.82;3.03;;;10.10;99.90;;;;;;5075505;28;20040;-65
2024/02/18 07:00:23;;;;;;;7.32;3.03;;;9.80;99.90;;;;;;5087923;28;20050;-65
2024/02/18 07:02:48;;;;;;;8.48;3.80;;;9.80;99.90;;;;;;5058287;28;20044;-64
2024/02/18 07:05:14;;;;;;;8.23;3.60;;;9.80;99.90;;;;;;5090900;28;20044;-65
2024/02/18 07:07:40;;;;;;;5.20;2.95;;;9.80;99.90;;;;;;5095927;27;20068;-65
2024/02/18 07:10:06;;;;;;;9.98;2.97;;;9.90;99.90;;;;;;5083020;28;20142;-65
2024/02/18 07:12:32;;;;;;;9.18;3.40;;;9.80;99.90;;;;;;5072866;28;20024;-65
2024/02/18 07:14:57;;;;;;;9.43;3.50;;;9.80;99.90;;;;;;5098348;27;20498;-65
2024/02/18 07:17:23;;;;;;;9.38;3.33;;;9.80;99.90;;;;;;5085304;28;20047;-65
2024/02/18 07:19:49;;;;;;;8.60;3.50;;;9.80;99.90;;;;;;5071861;28;20044;-65
2024/02/18 07:22:15;;;;;;;7.72;3.40;;;9.70;99.90;;;;;;5072233;28;20451;-65
2024/02/18 07:24:42;;;;;;;10.23;3.78;;;9.80;99.90;;;;;;5088453;28;20040;-65
2024/02/18 07:27:07;;;;;;;9.18;3.58;;;9.80;99.90;;;;;;5072785;28;20096;-65
2024/02/18 07:29:33;;;;;;;6.82;3.47;;;9.80;99.90;;;;;;5070032;28;20044;-65
2024/02/18 07:31:59;;;;;;;9.93;3.47;;;9.80;99.90;;;;;;5070091;28;20032;-65
2024/02/18 07:34:24;;;;;;;6.65;3.63;;;9.70;99.90;;;;;;5084310;28;20554;-65
2024/02/18 07:36:50;;;;;;;9.98;3.63;;;9.80;99.90;;;;;;5088240;28;20031;-65
2024/02/18 07:39:16;;;;;;;7.43;4.03;;;9.70;99.90;;;;;;5091879;28;20130;-65
2024/02/18 07:41:41;;;;;;;10.63;3.60;;;9.70;99.90;;;;;;5088826;28;20869;-65
2024/02/18 07:44:07;;;;;;;9.85;3.40;;;9.70;99.90;;;;;;5072254;28;20134;-65
2024/02/18 07:46:33;;;;;;;9.60;3.25;;;9.80;99.90;;;;;;5054230;28;20040;-65
2024/02/18 07:48:59;;;;;;;10.52;3.78;;;9.80;99.90;;;;;;5101634;27;20531;-65
2024/02/18 07:51:28;;;;;;;9.25;3.42;;;9.80;99.90;;;;;;5056055;28;20040;-65
2024/02/18 07:53:55;;;;;;;8.50;3.67;;;9.80;99.90;;;;;;5090466;28;21007;-65
2024/02/18 07:56:21;;;;;;;7.93;4.35;;;9.80;99.90;;;;;;5074339;28;20509;-65
2024/02/18 07:58:47;;;;;;;7.07;3.53;;;9.80;99.90;;;;;;5076999;28;20044;-65
2024/02/18 08:01:13;;;;;;;10.68;4.28;;;9.80;99.90;;;;;;5088138;28;20540;-65
2024/02/18 08:03:38;;;;;;;7.90;3.80;;;9.80;99.90;;;;;;5082408;28;20039;-65
2024/02/18 08:06:04;;;;;;;12.63;4.20;;;9.80;99.90;;;;;;5061230;28;20044;-65
2024/02/18 08:08:30;;;;;;;11.50;4.68;;;9.70;99.90;;;;;;5097744;28;20112;-64
2024/02/18 08:10:55;;;;;;;11.85;4.68;;;9.70;99.90;;;;;;5062446;28;20067;-64
2024/02/18 08:13:21;;;;;;;6.78;3.10;;;9.70;99.90;;;;;;5088320;28;20044;-64
2024/02/18 08:15:46;;;;;;;11.93;3.85;;;9.60;99.90;;;;;;5066154;28;20572;-64
2024/02/18 08:18:12;;;;;;;9.35;3.53;;;9.60;99.90;;;;;;5074217;28;20039;-64
2024/02/18 08:20:38;;;;;;;11.18;4.28;;;9.50;99.90;;;;;;5087959;28;20161;-64
2024/02/18 08:23:06;;;;;;;8.18;4.78;;;9.00;99.90;;;;;;5071519;28;20055;-64
2024/02/18 08:25:32;;;;;;;7.22;3.22;;;9.60;99.90;;;;;;5072365;28;20033;-64
2024/02/18 08:27:59;;;;;;;11.20;4.38;;;9.50;99.90;;;;;;5063789;28;20470;-64
2024/02/18 08:30:25;;;;;;;12.00;4.10;;;9.60;99.90;;;;;;5067357;28;20063;-64
2024/02/18 08:32:51;;;;;;;9.10;3.95;;;9.60;99.90;;;;;;5094245;28;20028;-64
2024/02/18 08:35:17;;;;;;;8.93;4.15;;;9.50;99.90;;;;;;5074023;28;20402;-64
2024/02/18 08:37:44;;;;;;;7.70;3.67;;;9.60;99.90;;;;;;5070177;28;20436;-64
2024/02/18 08:40:10;;;;;;;9.18;4.78;;;9.50;99.90;;;;;;5087347;28;20827;-64
2024/02/18 08:42:36;;;;;;;7.00;3.65;;;9.50;99.90;;;;;;5074932;28;20039;-64
2024/02/18 08:45:02;;;;;;;7.93;3.60;;;9.50;99.90;;;;;;5075351;28;20482;-64
2024/02/18 08:47:28;;;;;;;9.50;3.65;;;9.50;99.90;;;;;;5077133;28;20084;-64
2024/02/18 08:49:54;;;;;;;6.68;4.00;;;9.60;99.90;;;;;;5089838;28;20032;-64
2024/02/18 08:52:19;;;;;;;7.65;3.28;;;9.60;99.90;;;;;;5073766;28;20138;-66
2024/02/18 08:54:45;;;;;;;9.75;3.60;;;9.60;99.90;;;;;;5055936;28;20040;-64
2024/02/18 08:57:10;;;;;;;9.63;4.40;;;9.60;99.90;;;;;;5077007;28;20126;-67
2024/02/18 08:59:36;;;;;;;7.70;3.78;;;9.60;99.90;;;;;;5065748;28;20101;-65
2024/02/18 09:02:02;;;;;;;8.90;3.95;;;9.60;99.90;;;;;;5084960;28;20036;-66
2024/02/18 09:04:28;;;;;;;11.27;3.30;;;9.50;99.90;;;;;;5056021;28;20044;-66
2024/02/18 09:06:54;;;;;;;8.85;3.10;;;9.50;99.90;;;;;;5094417;28;20078;-66
2024/02/18 09:09:20;;;;;;;9.63;3.03;;;9.50;99.90;;;;;;5075059;28;20429;-66
2024/02/18 09:11:45;;;;;;;9.52;3.15;;;9.50;99.90;;;;;;5105990;28;20039;-66
2024/02/18 09:14:11;;;;;;;8.07;3.40;;;9.50;99.90;;;;;;5075414;28;20044;-66
2024/02/18 09:16:37;;;;;;;9.15;3.20;;;9.40;99.90;;;;;;5074928;28;20486;-66
2024/02/18 09:19:02;;;;;;;7.05;2.85;;;9.40;99.90;;;;;;5074285;28;20100;-66
2024/02/18 09:21:28;;;;;;;8.43;3.65;;;9.40;99.90;;;;;;5076258;28;20047;-68
2024/02/18 09:23:53;;;;;;;6.07;2.72;;;9.40;99.90;;;;;;5078178;28;20035;-67
2024/02/18 09:26:19;;;;;;;4.97;2.92;;;9.40;99.90;;;;;;5083658;28;20040;-66
2024/02/18 09:28:45;;;;;;;7.35;3.15;;;9.50;99.90;;;;;;5095644;28;20040;-67
2024/02/18 09:31:11;;;;;;;5.28;2.75;;;9.50;99.90;;;;;;5076366;28;20051;-66
2024/02/18 09:33:41;;;;;;;5.47;2.20;;;9.50;99.90;;;;;;5076920;28;20036;-66
2024/02/18 09:36:06;;;;;;;4.80;2.50;;;9.50;99.90;;;;;;5075979;28;20035;-66
2024/02/18 09:38:32;;;;;;;7.00;3.00;;;9.50;99.90;;;;;;5079308;28;20043;-66
2024/02/18 09:40:57;;;;;;;8.75;2.67;;;9.50;99.90;;;;;;5091304;28;20391;-66
2024/02/18 09:43:25;;;;;;;6.32;2.65;;;9.50;99.90;;;;;;5075173;28;20040;-66
2024/02/18 09:45:52;;;;;;;5.85;2.55;;;9.50;99.90;;;;;;5094631;28;20037;-66
2024/02/18 09:48:20;;;;;;;5.65;2.28;;;9.50;99.90;;;;;;5101144;28;20039;-66
2024/02/18 09:50:49;;;;;;;2.88;1.92;;;9.50;99.90;;;;;;5073888;28;20043;-66
2024/02/18 09:53:16;;;;;;;4.60;2.30;;;9.50;99.90;;;;;;5079950;28;20048;-66
2024/02/18 09:55:43;;;;;;;5.53;2.30;;;9.50;99.90;;;;;;5075422;28;20482;-66
2024/02/18 09:58:10;;;;;;;6.35;2.10;;;9.50;99.90;;;;;;5076499;28;20415;-66
2024/02/18 10:00:36;;;;;;;3.33;1.70;;;9.60;99.90;;;;;;5054006;28;20048;-67
2024/02/18 10:03:03;;;;;;;5.25;2.10;;;9.60;99.90;;;;;;5072752;28;20047;-66
2024/02/18 10:05:31;;;;;;;4.45;1.88;;;9.60;99.90;;;;;;5076080;28;20497;-67
2024/02/18 10:08:04;;;;;;;6.80;1.73;;;9.60;99.90;;;;;;5073001;28;20118;-66
2024/02/18 10:10:35;;;;;;;5.10;1.73;;;9.60;99.90;;;;;;5091270;28;20108;-66
2024/02/18 10:13:03;;;;;;;3.88;1.65;;;9.60;99.90;;;;;;5093773;28;20042;-66
2024/02/18 10:15:29;;;;;;;4.32;1.80;;;9.50;99.90;;;;;;5091300;28;20052;-67
2024/02/18 10:17:54;;;;;;;4.55;1.42;;;9.60;99.90;;;;;;5082564;28;20074;-66
2024/02/18 10:20:20;;;;;;;5.30;1.80;;;9.60;99.90;;;;;;5070021;28;20481;-66
2024/02/18 10:22:45;;;;;;;4.30;1.60;;;9.60;99.90;;;;;;5091151;28;20641;-66
2024/02/18 10:25:11;;;;;;;3.00;1.88;;;9.60;99.90;;;;;;5102068;27;20055;-66
2024/02/18 10:27:38;;;;;;;4.15;1.90;;;9.60;99.90;;;;;;5096633;28;20031;-66
2024/02/18 10:30:07;;;;;;;5.03;2.45;;;9.60;99.90;;;;;;5076227;28;20048;-66
2024/02/18 10:32:32;;;;;;;4.18;2.28;;;9.50;99.90;;;;;;5079928;28;20050;-66
2024/02/18 10:34:58;;;;;;;3.10;1.90;;;9.60;99.90;;;;;;5053014;28;20036;-66
2024/02/18 10:37:35;;;;;;;4.63;2.03;;;9.50;99.90;;;;;;5027651;28;20040;-66
2024/02/18 10:40:07;;;;;;;5.05;2.30;;;9.60;99.90;;;;;;5064749;28;20037;-66
2024/02/18 10:42:37;;;;;;;4.75;2.20;;;9.60;99.90;;;;;;5062932;28;20044;-66
2024/02/18 10:45:05;;;;;;;3.05;1.95;;;9.50;99.90;;;;;;5063724;28;20533;-66
2024/02/18 10:47:32;;;;;;;3.30;1.67;;;9.50;99.90;;;;;;5063362;28;20041;-66
2024/02/18 10:50:01;;;;;;;5.75;2.88;;;9.50;99.90;;;;;;5062413;28;20479;-66
2024/02/18 10:52:41;;;;;;;4.50;2.28;;;9.40;99.90;;;;;;5031910;28;20078;-66
2024/02/18 10:55:28;;;;;;;4.45;2.17;;;9.50;99.90;;;;;;5046035;28;20086;-66
2024/02/18 10:58:16;;;;;;;3.03;2.33;;;9.40;99.90;;;;;;5063008;28;20802;-66
2024/02/18 11:00:45;;;;;;;2.85;2.17;;;9.30;99.90;;;;;;5044474;28;20052;-66
2024/02/18 11:03:35;;;;;;;6.22;2.47;;;9.40;99.90;;;;;;5044700;28;20059;-66
2024/02/18 11:06:03;;;;;;;5.10;2.20;;;9.40;99.90;;;;;;5047082;28;20128;-66
2024/02/18 11:08:31;;;;;;;4.75;2.65;;;9.40;99.90;;;;;;5067317;28;20127;-66
2024/02/18 11:10:58;;;;;;;4.05;2.60;;;9.40;99.90;;;;;;5059345;28;20047;-66
2024/02/18 11:13:25;;;;;;;5.32;2.20;;;9.30;99.90;;;;;;5063214;28;20048;-66
2024/02/18 11:15:51;;;;;;;5.72;2.47;;;9.30;99.90;;;;;;5066717;28;20067;-66
2024/02/18 11:18:17;;;;;;;6.18;2.70;;;9.30;99.90;;;;;;5067189;28;20036;-66
2024/02/18 11:20:44;;;;;;;5.15;2.60;;;9.30;99.90;;;;;;5059009;28;20071;-66
2024/02/18 11:23:10;;;;;;;3.47;2.28;;;9.30;99.90;;;;;;5046020;28;20544;-66
2024/02/18 11:25:36;;;;;;;4.97;2.80;;;9.30;99.90;;;;;;5050921;28;20053;-66
2024/02/18 11:28:02;;;;;;;3.08;2.47;;;9.30;99.90;;;;;;5047927;28;20135;-66
2024/02/18 11:30:28;;;;;;;4.00;3.05;;;9.20;99.90;;;;;;5045202;28;20048;-66
2024/02/18 11:32:54;;;;;;;4.95;2.83;;;9.30;99.90;;;;;;5063725;28;20512;-66
2024/02/18 11:35:20;;;;;;;3.88;2.65;;;9.20;99.90;;;;;;5062100;28;20170;-66
2024/02/18 11:37:47;;;;;;;5.30;2.90;;;9.20;99.90;;;;;;5060498;28;20059;-66
2024/02/18 11:40:18;;;;;;;3.72;2.70;;;9.20;99.90;;;;;;5042914;28;20056;-66
2024/02/18 11:42:45;;;;;;;4.05;2.05;;;9.20;99.90;;;;;;5045282;28;20079;-66
2024/02/18 11:45:15;;;;;;;5.55;2.90;;;9.20;99.90;;;;;;5046616;28;20052;-66
2024/02/18 11:47:49;;;;;;;3.78;2.85;;;9.10;99.90;;;;;;5044942;28;20048;-66
2024/02/18 11:50:17;;;;;;;5.45;3.30;;;9.10;99.90;;;;;;5065329;28;20115;-66
2024/02/18 11:52:44;;;;;;;8.57;3.03;;;9.10;99.90;;;;;;5065522;28;20127;-66
2024/02/18 11:55:21;;;;;;;4.60;2.67;;;9.10;99.90;;;;;;5041557;28;20040;-66
2024/02/18 11:57:48;;;;;;;7.55;3.75;;;9.10;99.90;;;;;;5056890;28;20045;-66
2024/02/18 12:00:16;;;;;;;4.32;2.28;;;9.10;99.90;;;;;;5073355;28;20044;-66
2024/02/18 12:02:48;;;;;;;4.13;3.00;;;9.10;99.90;;;;;;5061484;28;20511;-66
2024/02/18 12:05:14;;;;;;;5.22;2.67;;;9.10;99.90;;;;;;5062442;28;20040;-66
2024/02/18 12:07:40;;;;;;;3.28;2.40;;;9.10;99.90;;;;;;5060606;28;20155;-66
2024/02/18 12:10:07;;;;;;;4.47;3.10;;;9.10;99.90;;;;;;5043246;28;20402;-66
2024/02/18 12:12:35;;;;;;;6.72;3.65;;;9.00;99.90;;;;;;5040193;28;20132;-66
2024/02/18 12:15:02;;;;;;;4.05;2.88;;;9.00;99.90;;;;;;5059402;28;20042;-66
2024/02/18 12:17:28;;;;;;;4.95;2.42;;;9.00;99.90;;;;;;5060349;28;20037;-66
2024/02/18 12:19:54;;;;;;;4.60;2.45;;;9.00;99.90;;;;;;5044286;28;20474;-66
2024/02/18 12:22:23;;;;;;;4.25;2.50;;;9.00;99.90;;;;;;5044804;28;20045;-67
2024/02/18 12:24:49;;;;;;;7.63;2.78;;;9.00;99.90;;;;;;5044340;28;20549;-66
2024/02/18 12:27:17;;;;;;;6.28;3.00;;;9.00;99.90;;;;;;5050014;28;20554;-66
2024/02/18 12:29:43;;;;;;;6.82;2.75;;;9.00;99.90;;;;;;5073545;28;20045;-66
2024/02/18 12:32:09;;;;;;;5.30;2.58;;;8.90;99.90;;;;;;5059496;28;20395;-66
2024/02/18 12:34:35;;;;;;;7.90;2.58;;;8.90;99.90;;;;;;5043294;28;20045;-66
2024/02/18 12:37:01;;;;;;;6.35;2.38;;;8.90;99.90;;;;;;5046809;28;20044;-66
2024/02/18 12:39:30;;;;;;;3.03;1.95;;;8.90;99.90;;;;;;5060710;28;20045;-66
2024/02/18 12:41:56;;;;;;;3.92;2.33;;;8.90;99.90;;;;;;5043209;28;20069;-66
2024/02/18 12:44:21;;;;;;;4.28;2.28;;;8.90;99.90;;;;;;5041362;28;20051;-66